createdAt,value
2019-02-23T00:00:28.804Z,1.92
2019-02-23T00:05:33.202Z,1.93
2019-02-23T00:10:35.939Z,1.92
2019-02-23T00:15:38.734Z,1.69
2019-02-23T00:20:41.580Z,1.62
2019-02-23T00:25:44.701Z,1.69
2019-02-23T00:30:47.154Z,1.54
2019-02-23T00:35:49.403Z,1.22
2019-02-23T00:40:51.714Z,1.27
2019-02-23T00:45:54.205Z,1.12
2019-02-23T00:50:56.500Z,1.00
2019-02-23T00:55:58.690Z,1.10
2019-02-23T01:01:00.945Z,1.12
2019-02-23T01:06:04.105Z,1.08
2019-02-23T01:11:07.454Z,0.93
2019-02-23T01:16:09.905Z,0.88
2019-02-23T01:21:12.787Z,0.83
2019-02-23T01:26:15.126Z,0.75
2019-02-23T01:31:17.585Z,0.78
2019-02-23T01:36:19.836Z,0.62
2019-02-23T01:41:23.149Z,0.58
2019-02-23T01:46:25.695Z,0.57
2019-02-23T01:51:29.008Z,0.61
2019-02-23T01:56:31.610Z,0.45
2019-02-23T02:01:34.215Z,0.43
2019-02-23T02:06:37.282Z,0.51
2019-02-23T02:11:39.883Z,0.43
2019-02-23T02:16:42.373Z,0.33
2019-02-23T02:21:45.006Z,0.28
2019-02-23T02:26:47.587Z,0.28
2019-02-23T02:31:50.480Z,0.22
2019-02-23T02:36:53.277Z,0.13
2019-02-23T02:41:55.560Z,0.09
2019-02-23T02:46:58.582Z,-0.01
2019-02-23T02:52:00.954Z,0.07
2019-02-23T02:57:03.384Z,0.11
2019-02-23T03:02:05.877Z,0.02
2019-02-23T03:07:08.476Z,-0.05
2019-02-23T03:12:11.073Z,-0.09
2019-02-23T03:17:14.178Z,-0.10
2019-02-23T03:22:17.588Z,-0.13
2019-02-23T03:27:19.873Z,-0.13
2019-02-23T03:32:22.981Z,-0.18
2019-02-23T03:37:26.260Z,-0.09
2019-02-23T03:42:28.582Z,-0.18
2019-02-23T03:47:31.087Z,-0.24
2019-02-23T03:52:34.329Z,-0.31
2019-02-23T03:57:36.575Z,-0.35
2019-02-23T04:02:38.799Z,-0.36
2019-02-23T04:07:41.121Z,-0.33
2019-02-23T04:12:43.431Z,-0.33
2019-02-23T04:17:45.713Z,-0.41
2019-02-23T04:22:48.080Z,-0.33
2019-02-23T04:27:51.105Z,-0.29
2019-02-23T04:32:53.327Z,-0.25
2019-02-23T04:37:56.285Z,-0.12
2019-02-23T04:42:59.368Z,0.08
2019-02-23T04:48:01.610Z,0.12
2019-02-23T04:53:04.129Z,0.25
2019-02-23T04:58:06.695Z,0.19
2019-02-23T05:03:08.924Z,-0.08
2019-02-23T05:08:11.154Z,-0.19
2019-02-23T05:13:13.725Z,-0.20
2019-02-23T05:18:16.748Z,-0.18
2019-02-23T05:23:19.599Z,-0.12
2019-02-23T05:28:22.637Z,-0.13
2019-02-23T05:33:24.884Z,-0.24
2019-02-23T05:38:27.580Z,-0.27
2019-02-23T05:43:30.153Z,-0.19
2019-02-23T05:48:33.283Z,-0.14
2019-02-23T05:53:35.485Z,-0.12
2019-02-23T05:58:38.823Z,-0.22
2019-02-23T06:03:41.512Z,-0.17
2019-02-23T06:08:44.583Z,-0.07
2019-02-23T06:13:47.609Z,-0.02
2019-02-23T06:18:50.463Z,-0.12
2019-02-23T06:23:53.274Z,-0.11
2019-02-23T06:28:55.864Z,-0.08
2019-02-23T06:33:58.955Z,-0.01
2019-02-23T06:39:01.440Z,0.03
2019-02-23T06:44:06.134Z,0.06
2019-02-23T06:49:08.775Z,0.08
2019-02-23T06:54:11.563Z,0.20
2019-02-23T06:59:14.634Z,0.06
2019-02-23T07:04:17.441Z,0.19
2019-02-23T07:09:20.590Z,0.27
2019-02-23T07:14:23.010Z,0.33
2019-02-23T07:19:25.731Z,0.44
2019-02-23T07:24:28.230Z,0.52
2019-02-23T07:29:32.406Z,0.71
2019-02-23T07:34:35.165Z,0.84
2019-02-23T07:39:37.646Z,0.97
2019-02-23T07:44:40.016Z,0.82
2019-02-23T08:01:19.883Z,0.57
2019-02-23T08:06:22.362Z,0.51
2019-02-23T08:11:24.755Z,1.01
2019-02-23T08:16:26.917Z,1.70
2019-02-23T08:21:29.157Z,1.85
2019-02-23T08:26:31.892Z,2.51
2019-02-23T08:31:34.109Z,2.88
2019-02-23T08:36:36.460Z,3.02
2019-02-23T08:41:38.637Z,3.43
2019-02-23T08:46:40.950Z,3.82
2019-02-23T08:51:43.146Z,4.02
2019-02-23T08:56:45.577Z,4.35
2019-02-23T09:01:48.290Z,4.90
2019-02-23T09:06:50.469Z,5.04
2019-02-23T09:11:53.148Z,5.12
2019-02-23T09:16:55.824Z,5.66
2019-02-23T09:21:58.322Z,5.88
2019-02-23T09:27:00.737Z,5.92
2019-02-23T09:32:03.123Z,6.32
2019-02-23T09:37:05.585Z,7.10
2019-02-23T09:42:08.521Z,7.49
2019-02-23T09:47:11.295Z,7.37
2019-02-23T09:52:13.447Z,6.87
2019-02-23T09:57:16.604Z,7.53
2019-02-23T10:02:18.760Z,8.06
2019-02-23T10:07:20.931Z,8.60
2019-02-23T10:12:23.617Z,8.84
2019-02-23T10:17:25.846Z,9.02
2019-02-23T10:22:28.037Z,9.02
2019-02-23T11:05:14.661Z,-141.74
2019-02-23T11:20:16.935Z,143.02
2019-02-23T11:25:19.758Z,166.36
2019-02-23T11:30:22.393Z,143.02
2019-02-23T11:35:25.049Z,-140.75
2019-02-23T11:40:27.334Z,143.02
2019-02-23T11:45:31.023Z,166.36
2019-02-23T11:50:34.876Z,-59.29
2019-02-23T11:55:37.248Z,-140.75
2019-02-23T12:00:40.316Z,-140.75
2019-02-23T12:05:43.763Z,-140.75
2019-02-23T12:10:47.244Z,-51.49
2019-02-23T12:15:50.243Z,143.02
2019-02-23T12:20:52.811Z,143.02
2019-02-23T12:25:55.272Z,143.02
2019-02-23T12:30:57.763Z,166.36
2019-02-23T12:36:01.219Z,143.02
2019-02-23T12:41:03.584Z,166.36
2019-02-23T12:46:05.893Z,124.66
2019-02-23T12:51:08.874Z,-140.75
2019-02-23T12:56:11.750Z,-140.75
2019-02-23T13:01:14.120Z,-140.75
2019-02-23T13:06:17.183Z,-140.75
2019-02-23T13:11:20.021Z,-140.75
2019-02-23T13:17:17.540Z,-140.75
2019-02-23T13:22:54.204Z,-140.75
2019-02-23T13:28:54.439Z,-140.75
2019-02-23T13:34:54.723Z,-140.75
2019-02-23T13:40:34.950Z,-140.75
2019-02-23T13:46:01.282Z,-140.75
2019-02-23T13:51:28.382Z,-140.75
2019-02-23T13:56:56.187Z,-140.75
2019-02-23T14:03:13.390Z,-140.75
2019-02-23T14:09:08.195Z,-140.75
2019-02-23T14:14:54.303Z,-140.75
2019-02-23T14:20:55.882Z,-140.75
2019-02-23T14:26:50.336Z,-140.75
2019-02-23T14:32:28.852Z,-140.75
2019-02-23T14:38:33.213Z,-140.75
2019-02-23T14:44:24.955Z,-140.75
2019-02-23T14:50:47.115Z,-140.75
2019-02-23T14:56:33.494Z,9.97
2019-02-23T15:02:14.982Z,9.22
2019-02-23T15:08:10.457Z,9.01
2019-02-23T15:13:46.623Z,8.84
2019-02-23T15:19:12.950Z,9.05
2019-02-23T15:25:13.343Z,9.04
2019-02-23T15:30:33.836Z,9.11
2019-02-23T15:36:41.895Z,9.08
2019-02-23T15:42:38.479Z,-140.75
2019-02-23T15:48:13.964Z,-89.39
2019-02-23T15:53:16.770Z,-89.39
2019-02-23T15:58:19.457Z,-89.39
2019-02-23T16:03:22.500Z,-88.74
2019-02-23T16:08:28.380Z,-88.74
2019-02-23T16:13:30.731Z,9.16
2019-02-23T16:18:34.223Z,8.51
2019-02-23T16:23:37.299Z,8.25
2019-02-23T16:28:39.495Z,8.15
2019-02-23T16:33:42.498Z,8.10
2019-02-23T16:38:45.521Z,8.12
2019-02-23T16:43:48.548Z,8.05
2019-02-23T16:48:51.270Z,7.90
2019-02-23T16:54:07.925Z,7.76
2019-02-23T16:59:10.952Z,7.42
2019-02-23T17:04:13.185Z,7.22
2019-02-23T17:09:15.573Z,7.10
2019-02-23T17:14:18.687Z,7.01
2019-02-23T17:19:21.384Z,6.96
2019-02-23T17:31:20.137Z,6.53
2019-02-23T17:36:22.988Z,6.43
2019-02-23T17:41:26.167Z,6.98
2019-02-23T17:46:29.296Z,6.20
2019-02-23T17:51:31.601Z,-89.39
2019-02-23T17:56:34.837Z,-140.75
2019-02-23T18:01:37.213Z,-140.75
2019-02-23T18:06:44.272Z,-140.75
2019-02-23T18:11:46.795Z,-140.75
2019-02-23T18:16:49.121Z,-140.75
2019-02-23T18:21:51.404Z,-140.75
2019-02-23T18:26:53.840Z,-140.75
2019-02-23T18:31:56.184Z,-140.75
2019-02-23T18:37:00.463Z,-140.75
2019-02-23T18:42:02.946Z,-140.75
2019-02-23T18:47:05.784Z,-140.75
2019-02-23T18:52:08.988Z,-140.75
2019-02-23T18:57:11.440Z,-140.75
2019-02-23T19:02:13.976Z,-140.75
2019-02-23T19:07:16.270Z,-140.75
2019-02-23T19:12:18.543Z,-140.75
2019-02-23T19:17:23.692Z,-140.75
2019-02-23T19:22:48.667Z,-140.75
2019-02-23T19:27:52.989Z,-140.75
2019-02-23T19:32:55.736Z,-140.75
2019-02-23T19:37:58.072Z,-140.75
2019-02-23T19:43:00.442Z,-140.75
2019-02-23T19:48:03.424Z,-140.75
2019-02-23T19:53:06.680Z,-140.75
2019-02-23T19:58:10.154Z,-140.75
2019-02-23T20:03:17.145Z,-140.75
2019-02-23T20:08:19.749Z,-55.38
2019-02-23T20:13:24.255Z,-140.75
2019-02-23T20:18:26.994Z,-130.41
2019-02-23T20:23:30.898Z,148.04
2019-02-23T20:29:00.966Z,189.66
2019-02-23T20:34:05.821Z,189.66
2019-02-23T20:39:08.916Z,189.66
2019-02-23T20:44:16.279Z,166.36
2019-02-23T20:49:19.857Z,189.66
2019-02-23T20:54:22.504Z,166.36
2019-02-23T20:59:25.017Z,189.66
2019-02-23T21:04:28.440Z,166.36
2019-02-23T21:09:31.316Z,189.66
2019-02-23T21:14:36.815Z,166.36
2019-02-23T21:19:41.109Z,189.66
2019-02-23T21:24:44.330Z,166.36
2019-02-23T21:29:47.451Z,189.66
2019-02-23T21:34:49.822Z,166.36
2019-02-23T21:39:58.364Z,189.66
2019-02-23T21:45:07.965Z,166.36
2019-02-23T21:50:21.886Z,189.66
2019-02-23T22:00:47.267Z,189.66
2019-02-23T22:05:50.294Z,166.36
2019-02-23T22:10:52.572Z,189.66
2019-02-23T22:15:55.219Z,166.36
2019-02-23T22:20:58.404Z,189.66
2019-02-23T22:26:01.136Z,166.36
2019-02-23T22:31:03.924Z,189.66
2019-02-23T22:36:06.774Z,189.71
2019-02-23T23:01:58.363Z,4.14
2019-02-23T23:07:00.571Z,3.79
2019-02-23T23:12:03.071Z,3.68
2019-02-23T23:17:05.961Z,3.53
2019-02-23T23:22:08.120Z,3.48
2019-02-23T23:27:11.854Z,3.43
2019-02-23T23:32:14.550Z,3.34
2019-02-23T23:37:16.848Z,3.29
2019-02-23T23:42:19.129Z,3.28
2019-02-23T23:47:22.209Z,3.24
2019-02-23T23:52:24.709Z,3.25
2019-02-23T23:57:27.399Z,3.25
